sensor_id;sensor_type;location;lat;lon;timestamp;pressure;altitude;pressure_sealevel;temperature
37536;BMP180;23379;51.554;6.736;2022-07-18T00:00:07;101953.00;;;17.10
37536;BMP180;23379;51.554;6.736;2022-07-18T00:02:33;101953.00;;;17.20
37536;BMP180;23379;51.554;6.736;2022-07-18T00:04:59;101956.00;;;17.10
37536;BMP180;23379;51.554;6.736;2022-07-18T00:07:24;101942.00;;;16.90
37536;BMP180;23379;51.554;6.736;2022-07-18T00:09:50;101949.00;;;16.90
37536;BMP180;23379;51.554;6.736;2022-07-18T00:12:15;101956.00;;;16.90
37536;BMP180;23379;51.554;6.736;2022-07-18T00:14:41;101947.00;;;17.00
37536;BMP180;23379;51.554;6.736;2022-07-18T00:17:07;101943.00;;;17.00
37536;BMP180;23379;51.554;6.736;2022-07-18T00:19:33;101933.00;;;17.00
37536;BMP180;23379;51.554;6.736;2022-07-18T00:21:59;101938.00;;;17.00
37536;BMP180;23379;51.554;6.736;2022-07-18T00:24:26;101936.00;;;17.10
37536;BMP180;23379;51.554;6.736;2022-07-18T00:26:51;101938.00;;;16.90
37536;BMP180;23379;51.554;6.736;2022-07-18T00:29:16;101941.00;;;16.90
37536;BMP180;23379;51.554;6.736;2022-07-18T00:31:42;101938.00;;;17.00
37536;BMP180;23379;51.554;6.736;2022-07-18T00:34:07;101917.00;;;17.00
37536;BMP180;23379;51.554;6.736;2022-07-18T00:36:33;101925.00;;;16.80
37536;BMP180;23379;51.554;6.736;2022-07-18T00:38:58;101928.00;;;16.90
37536;BMP180;23379;51.554;6.736;2022-07-18T00:41:24;101931.00;;;16.80
37536;BMP180;23379;51.554;6.736;2022-07-18T00:43:50;101914.00;;;16.70
37536;BMP180;23379;51.554;6.736;2022-07-18T00:46:20;101915.00;;;16.80
37536;BMP180;23379;51.554;6.736;2022-07-18T00:48:46;101927.00;;;16.80
37536;BMP180;23379;51.554;6.736;2022-07-18T00:51:11;101925.00;;;16.80
37536;BMP180;23379;51.554;6.736;2022-07-18T00:53:37;101913.00;;;16.80
37536;BMP180;23379;51.554;6.736;2022-07-18T00:56:03;101925.00;;;16.70
37536;BMP180;23379;51.554;6.736;2022-07-18T00:58:29;101936.00;;;16.50
37536;BMP180;23379;51.554;6.736;2022-07-18T01:00:56;101928.00;;;16.50
37536;BMP180;23379;51.554;6.736;2022-07-18T01:03:40;101927.00;;;16.50
37536;BMP180;23379;51.554;6.736;2022-07-18T01:06:05;101930.00;;;16.50
37536;BMP180;23379;51.554;6.736;2022-07-18T01:08:31;101924.00;;;16.50
37536;BMP180;23379;51.554;6.736;2022-07-18T01:10:57;101922.00;;;16.40
37536;BMP180;23379;51.554;6.736;2022-07-18T01:13:23;101916.00;;;16.40
37536;BMP180;23379;51.554;6.736;2022-07-18T01:15:48;101919.00;;;16.40
37536;BMP180;23379;51.554;6.736;2022-07-18T01:18:14;101927.00;;;16.20
37536;BMP180;23379;51.554;6.736;2022-07-18T01:20:39;101903.00;;;16.40
37536;BMP180;23379;51.554;6.736;2022-07-18T01:23:05;101924.00;;;16.20
37536;BMP180;23379;51.554;6.736;2022-07-18T01:25:31;101899.00;;;16.00
37536;BMP180;23379;51.554;6.736;2022-07-18T01:27:57;101905.00;;;16.50
37536;BMP180;23379;51.554;6.736;2022-07-18T01:30:23;101909.00;;;16.50
37536;BMP180;23379;51.554;6.736;2022-07-18T01:33:00;101914.00;;;16.60
37536;BMP180;23379;51.554;6.736;2022-07-18T01:35:27;101902.00;;;16.70
37536;BMP180;23379;51.554;6.736;2022-07-18T01:37:55;101913.00;;;16.70
37536;BMP180;23379;51.554;6.736;2022-07-18T01:40:20;101875.00;;;16.80
37536;BMP180;23379;51.554;6.736;2022-07-18T01:42:46;101905.00;;;16.80
37536;BMP180;23379;51.554;6.736;2022-07-18T01:45:12;101903.00;;;16.60
37536;BMP180;23379;51.554;6.736;2022-07-18T01:47:38;101899.00;;;16.70
37536;BMP180;23379;51.554;6.736;2022-07-18T01:50:04;101915.00;;;16.60
37536;BMP180;23379;51.554;6.736;2022-07-18T01:52:29;101890.00;;;16.60
37536;BMP180;23379;51.554;6.736;2022-07-18T01:54:55;101888.00;;;16.50
37536;BMP180;23379;51.554;6.736;2022-07-18T01:57:20;101903.00;;;16.50
37536;BMP180;23379;51.554;6.736;2022-07-18T01:59:46;101909.00;;;16.50
37536;BMP180;23379;51.554;6.736;2022-07-18T02:02:11;101910.00;;;16.40
37536;BMP180;23379;51.554;6.736;2022-07-18T02:04:36;101904.00;;;16.20
37536;BMP180;23379;51.554;6.736;2022-07-18T02:07:20;101908.00;;;16.20
37536;BMP180;23379;51.554;6.736;2022-07-18T02:09:46;101888.00;;;16.20
37536;BMP180;23379;51.554;6.736;2022-07-18T02:12:11;101913.00;;;16.00
37536;BMP180;23379;51.554;6.736;2022-07-18T02:14:37;101894.00;;;16.10
37536;BMP180;23379;51.554;6.736;2022-07-18T02:17:02;101911.00;;;16.20
37536;BMP180;23379;51.554;6.736;2022-07-18T02:19:28;101919.00;;;16.10
37536;BMP180;23379;51.554;6.736;2022-07-18T02:21:53;101906.00;;;16.00
37536;BMP180;23379;51.554;6.736;2022-07-18T02:24:18;101893.00;;;16.00
37536;BMP180;23379;51.554;6.736;2022-07-18T02:26:44;101896.00;;;15.80
37536;BMP180;23379;51.554;6.736;2022-07-18T02:29:09;101896.00;;;15.80
37536;BMP180;23379;51.554;6.736;2022-07-18T02:31:34;101889.00;;;15.90
37536;BMP180;23379;51.554;6.736;2022-07-18T02:34:00;101895.00;;;15.80
37536;BMP180;23379;51.554;6.736;2022-07-18T02:36:25;101892.00;;;15.80
37536;BMP180;23379;51.554;6.736;2022-07-18T02:38:51;101885.00;;;15.40
37536;BMP180;23379;51.554;6.736;2022-07-18T02:41:16;101884.00;;;15.80
37536;BMP180;23379;51.554;6.736;2022-07-18T02:43:41;101885.00;;;15.60
37536;BMP180;23379;51.554;6.736;2022-07-18T02:46:07;101889.00;;;15.50
37536;BMP180;23379;51.554;6.736;2022-07-18T02:48:32;101890.00;;;15.50
37536;BMP180;23379;51.554;6.736;2022-07-18T02:50:58;101897.00;;;15.30
37536;BMP180;23379;51.554;6.736;2022-07-18T02:53:23;101891.00;;;15.20
37536;BMP180;23379;51.554;6.736;2022-07-18T02:55:51;101890.00;;;14.90
37536;BMP180;23379;51.554;6.736;2022-07-18T02:58:17;101878.00;;;15.30
37536;BMP180;23379;51.554;6.736;2022-07-18T03:00:43;101890.00;;;15.40
37536;BMP180;23379;51.554;6.736;2022-07-18T03:03:08;101881.00;;;15.30
37536;BMP180;23379;51.554;6.736;2022-07-18T03:05:34;101889.00;;;15.20
37536;BMP180;23379;51.554;6.736;2022-07-18T03:07:59;101877.00;;;15.10
37536;BMP180;23379;51.554;6.736;2022-07-18T03:10:25;101874.00;;;15.10
37536;BMP180;23379;51.554;6.736;2022-07-18T03:12:50;101871.00;;;15.00
37536;BMP180;23379;51.554;6.736;2022-07-18T03:15:15;101854.00;;;15.00
37536;BMP180;23379;51.554;6.736;2022-07-18T03:17:41;101874.00;;;15.00
37536;BMP180;23379;51.554;6.736;2022-07-18T03:20:07;101881.00;;;15.20
37536;BMP180;23379;51.554;6.736;2022-07-18T03:22:32;101871.00;;;15.00
37536;BMP180;23379;51.554;6.736;2022-07-18T03:24:58;101880.00;;;15.00
37536;BMP180;23379;51.554;6.736;2022-07-18T03:27:24;101882.00;;;15.00
37536;BMP180;23379;51.554;6.736;2022-07-18T03:29:49;101888.00;;;15.10
37536;BMP180;23379;51.554;6.736;2022-07-18T03:32:15;101880.00;;;15.10
37536;BMP180;23379;51.554;6.736;2022-07-18T03:34:40;101864.00;;;15.00
37536;BMP180;23379;51.554;6.736;2022-07-18T03:37:05;101883.00;;;15.00
37536;BMP180;23379;51.554;6.736;2022-07-18T03:39:31;101875.00;;;15.10
37536;BMP180;23379;51.554;6.736;2022-07-18T03:41:56;101864.00;;;15.10
37536;BMP180;23379;51.554;6.736;2022-07-18T03:44:22;101876.00;;;14.90
37536;BMP180;23379;51.554;6.736;2022-07-18T03:46:47;101880.00;;;15.10
37536;BMP180;23379;51.554;6.736;2022-07-18T03:49:12;101881.00;;;15.00
37536;BMP180;23379;51.554;6.736;2022-07-18T03:51:38;101878.00;;;15.10
37536;BMP180;23379;51.554;6.736;2022-07-18T03:54:03;101870.00;;;15.10
37536;BMP180;23379;51.554;6.736;2022-07-18T03:56:29;101869.00;;;15.10
37536;BMP180;23379;51.554;6.736;2022-07-18T03:58:54;101862.00;;;15.00
37536;BMP180;23379;51.554;6.736;2022-07-18T04:01:19;101870.00;;;14.90
37536;BMP180;23379;51.554;6.736;2022-07-18T04:03:45;101864.00;;;15.00
37536;BMP180;23379;51.554;6.736;2022-07-18T04:06:10;101856.00;;;14.90
37536;BMP180;23379;51.554;6.736;2022-07-18T04:08:36;101858.00;;;15.10
37536;BMP180;23379;51.554;6.736;2022-07-18T04:11:01;101847.00;;;15.10
37536;BMP180;23379;51.554;6.736;2022-07-18T04:13:27;101860.00;;;15.20
37536;BMP180;23379;51.554;6.736;2022-07-18T04:15:52;101845.00;;;15.40
37536;BMP180;23379;51.554;6.736;2022-07-18T04:18:17;101850.00;;;15.50
37536;BMP180;23379;51.554;6.736;2022-07-18T04:20:43;101863.00;;;15.40
37536;BMP180;23379;51.554;6.736;2022-07-18T04:23:10;101878.00;;;15.50
37536;BMP180;23379;51.554;6.736;2022-07-18T04:25:40;101859.00;;;15.60
37536;BMP180;23379;51.554;6.736;2022-07-18T04:28:09;101862.00;;;15.60
37536;BMP180;23379;51.554;6.736;2022-07-18T04:30:34;101859.00;;;15.80
37536;BMP180;23379;51.554;6.736;2022-07-18T04:33:03;101873.00;;;15.80
37536;BMP180;23379;51.554;6.736;2022-07-18T04:35:29;101869.00;;;16.10
37536;BMP180;23379;51.554;6.736;2022-07-18T04:37:55;101881.00;;;16.20
37536;BMP180;23379;51.554;6.736;2022-07-18T04:40:21;101855.00;;;16.40
37536;BMP180;23379;51.554;6.736;2022-07-18T04:42:46;101863.00;;;16.90
37536;BMP180;23379;51.554;6.736;2022-07-18T04:45:13;101882.00;;;17.20
37536;BMP180;23379;51.554;6.736;2022-07-18T04:47:38;101869.00;;;18.00
37536;BMP180;23379;51.554;6.736;2022-07-18T04:50:05;101854.00;;;18.40
37536;BMP180;23379;51.554;6.736;2022-07-18T04:52:38;101857.00;;;19.40
37536;BMP180;23379;51.554;6.736;2022-07-18T04:55:04;101875.00;;;19.60
37536;BMP180;23379;51.554;6.736;2022-07-18T04:57:30;101861.00;;;18.80
37536;BMP180;23379;51.554;6.736;2022-07-18T04:59:56;101856.00;;;18.50
37536;BMP180;23379;51.554;6.736;2022-07-18T05:02:21;101844.00;;;18.40
37536;BMP180;23379;51.554;6.736;2022-07-18T05:04:46;101844.00;;;18.00
37536;BMP180;23379;51.554;6.736;2022-07-18T05:07:12;101842.00;;;17.70
37536;BMP180;23379;51.554;6.736;2022-07-18T05:09:37;101820.00;;;17.10
37536;BMP180;23379;51.554;6.736;2022-07-18T05:12:03;101831.00;;;16.90
37536;BMP180;23379;51.554;6.736;2022-07-18T05:14:28;101837.00;;;16.80
37536;BMP180;23379;51.554;6.736;2022-07-18T05:16:54;101836.00;;;16.90
37536;BMP180;23379;51.554;6.736;2022-07-18T05:19:19;101833.00;;;16.90
37536;BMP180;23379;51.554;6.736;2022-07-18T05:21:45;101847.00;;;17.00
37536;BMP180;23379;51.554;6.736;2022-07-18T05:24:11;101843.00;;;17.10
37536;BMP180;23379;51.554;6.736;2022-07-18T05:26:37;101853.00;;;17.20
37536;BMP180;23379;51.554;6.736;2022-07-18T05:29:03;101853.00;;;17.60
37536;BMP180;23379;51.554;6.736;2022-07-18T05:31:29;101843.00;;;17.90
37536;BMP180;23379;51.554;6.736;2022-07-18T05:33:54;101854.00;;;17.80
37536;BMP180;23379;51.554;6.736;2022-07-18T05:36:20;101845.00;;;17.90
37536;BMP180;23379;51.554;6.736;2022-07-18T05:38:45;101845.00;;;18.10
37536;BMP180;23379;51.554;6.736;2022-07-18T05:41:11;101828.00;;;18.30
37536;BMP180;23379;51.554;6.736;2022-07-18T05:43:36;101842.00;;;18.40
37536;BMP180;23379;51.554;6.736;2022-07-18T05:46:05;101842.00;;;18.50
37536;BMP180;23379;51.554;6.736;2022-07-18T05:48:30;101838.00;;;18.60
37536;BMP180;23379;51.554;6.736;2022-07-18T05:50:56;101833.00;;;19.00
37536;BMP180;23379;51.554;6.736;2022-07-18T05:53:21;101832.00;;;19.40
37536;BMP180;23379;51.554;6.736;2022-07-18T05:55:46;101829.00;;;19.60
37536;BMP180;23379;51.554;6.736;2022-07-18T05:58:12;101826.00;;;19.60
37536;BMP180;23379;51.554;6.736;2022-07-18T06:00:37;101822.00;;;20.00
37536;BMP180;23379;51.554;6.736;2022-07-18T06:03:03;101824.00;;;20.80
37536;BMP180;23379;51.554;6.736;2022-07-18T06:05:28;101823.00;;;21.20
37536;BMP180;23379;51.554;6.736;2022-07-18T06:07:55;101830.00;;;21.00
37536;BMP180;23379;51.554;6.736;2022-07-18T06:10:22;101818.00;;;21.10
37536;BMP180;23379;51.554;6.736;2022-07-18T06:12:48;101832.00;;;21.00
37536;BMP180;23379;51.554;6.736;2022-07-18T06:15:15;101822.00;;;21.60
37536;BMP180;23379;51.554;6.736;2022-07-18T06:17:41;101836.00;;;21.10
37536;BMP180;23379;51.554;6.736;2022-07-18T06:20:07;101831.00;;;21.50
37536;BMP180;23379;51.554;6.736;2022-07-18T06:22:33;101841.00;;;21.40
37536;BMP180;23379;51.554;6.736;2022-07-18T06:24:59;101834.00;;;21.40
37536;BMP180;23379;51.554;6.736;2022-07-18T06:27:25;101842.00;;;21.60
37536;BMP180;23379;51.554;6.736;2022-07-18T06:29:50;101821.00;;;21.80
37536;BMP180;23379;51.554;6.736;2022-07-18T06:32:16;101834.00;;;21.90
37536;BMP180;23379;51.554;6.736;2022-07-18T06:34:41;101824.00;;;22.00
37536;BMP180;23379;51.554;6.736;2022-07-18T06:37:06;101836.00;;;22.20
37536;BMP180;23379;51.554;6.736;2022-07-18T06:39:32;101823.00;;;22.10
37536;BMP180;23379;51.554;6.736;2022-07-18T06:41:57;101817.00;;;22.10
37536;BMP180;23379;51.554;6.736;2022-07-18T06:44:22;101828.00;;;22.40
37536;BMP180;23379;51.554;6.736;2022-07-18T06:46:48;101822.00;;;22.40
37536;BMP180;23379;51.554;6.736;2022-07-18T06:49:13;101817.00;;;22.60
37536;BMP180;23379;51.554;6.736;2022-07-18T06:51:40;101813.00;;;22.60
37536;BMP180;23379;51.554;6.736;2022-07-18T06:54:06;101815.00;;;23.00
37536;BMP180;23379;51.554;6.736;2022-07-18T06:56:31;101803.00;;;22.90
37536;BMP180;23379;51.554;6.736;2022-07-18T06:58:57;101813.00;;;23.20
37536;BMP180;23379;51.554;6.736;2022-07-18T07:01:22;101816.00;;;23.30
37536;BMP180;23379;51.554;6.736;2022-07-18T07:03:48;101812.00;;;23.20
37536;BMP180;23379;51.554;6.736;2022-07-18T07:06:14;101803.00;;;23.20
37536;BMP180;23379;51.554;6.736;2022-07-18T07:08:41;101800.00;;;23.30
37536;BMP180;23379;51.554;6.736;2022-07-18T07:11:06;101797.00;;;23.40
37536;BMP180;23379;51.554;6.736;2022-07-18T07:13:32;101808.00;;;23.70
37536;BMP180;23379;51.554;6.736;2022-07-18T07:15:58;101813.00;;;23.70
37536;BMP180;23379;51.554;6.736;2022-07-18T07:18:23;101801.00;;;24.10
37536;BMP180;23379;51.554;6.736;2022-07-18T07:20:49;101815.00;;;23.80
37536;BMP180;23379;51.554;6.736;2022-07-18T07:23:14;101823.00;;;24.10
37536;BMP180;23379;51.554;6.736;2022-07-18T07:25:40;101822.00;;;24.40
37536;BMP180;23379;51.554;6.736;2022-07-18T07:28:06;101817.00;;;24.40
37536;BMP180;23379;51.554;6.736;2022-07-18T07:30:32;101815.00;;;24.40
37536;BMP180;23379;51.554;6.736;2022-07-18T07:32:58;101823.00;;;24.70
37536;BMP180;23379;51.554;6.736;2022-07-18T07:35:24;101804.00;;;24.90
37536;BMP180;23379;51.554;6.736;2022-07-18T07:37:58;101812.00;;;24.80
37536;BMP180;23379;51.554;6.736;2022-07-18T07:40:25;101814.00;;;24.80
37536;BMP180;23379;51.554;6.736;2022-07-18T07:42:51;101816.00;;;25.20
37536;BMP180;23379;51.554;6.736;2022-07-18T07:45:18;101827.00;;;25.40
37536;BMP180;23379;51.554;6.736;2022-07-18T07:47:44;101812.00;;;25.10
37536;BMP180;23379;51.554;6.736;2022-07-18T07:50:11;101810.00;;;25.20
37536;BMP180;23379;51.554;6.736;2022-07-18T07:52:37;101810.00;;;26.00
37536;BMP180;23379;51.554;6.736;2022-07-18T07:55:04;101805.00;;;26.20
37536;BMP180;23379;51.554;6.736;2022-07-18T07:57:29;101789.00;;;26.80
37536;BMP180;23379;51.554;6.736;2022-07-18T07:59:55;101788.00;;;26.90
37536;BMP180;23379;51.554;6.736;2022-07-18T08:02:20;101797.00;;;26.90
37536;BMP180;23379;51.554;6.736;2022-07-18T08:04:45;101795.00;;;27.90
37536;BMP180;23379;51.554;6.736;2022-07-18T08:07:11;101803.00;;;28.40
37536;BMP180;23379;51.554;6.736;2022-07-18T08:09:37;101797.00;;;28.70
37536;BMP180;23379;51.554;6.736;2022-07-18T08:12:03;101795.00;;;29.70
37536;BMP180;23379;51.554;6.736;2022-07-18T08:14:29;101798.00;;;29.70
37536;BMP180;23379;51.554;6.736;2022-07-18T08:16:54;101804.00;;;30.10
37536;BMP180;23379;51.554;6.736;2022-07-18T08:19:20;101789.00;;;31.10
37536;BMP180;23379;51.554;6.736;2022-07-18T08:21:45;101803.00;;;31.80
37536;BMP180;23379;51.554;6.736;2022-07-18T08:24:10;101802.00;;;32.40
37536;BMP180;23379;51.554;6.736;2022-07-18T08:26:36;101804.00;;;32.10
37536;BMP180;23379;51.554;6.736;2022-07-18T08:29:05;101805.00;;;32.30
37536;BMP180;23379;51.554;6.736;2022-07-18T08:31:30;101796.00;;;33.20
37536;BMP180;23379;51.554;6.736;2022-07-18T08:33:56;101801.00;;;33.80
37536;BMP180;23379;51.554;6.736;2022-07-18T08:36:21;101812.00;;;33.80
37536;BMP180;23379;51.554;6.736;2022-07-18T08:38:47;101798.00;;;34.30
37536;BMP180;23379;51.554;6.736;2022-07-18T08:41:12;101814.00;;;34.70
37536;BMP180;23379;51.554;6.736;2022-07-18T08:43:39;101816.00;;;35.10
37536;BMP180;23379;51.554;6.736;2022-07-18T08:46:05;101805.00;;;34.60
37536;BMP180;23379;51.554;6.736;2022-07-18T08:48:32;101821.00;;;35.30
37536;BMP180;23379;51.554;6.736;2022-07-18T08:50:59;101825.00;;;36.20
37536;BMP180;23379;51.554;6.736;2022-07-18T08:53:25;101821.00;;;36.50
37536;BMP180;23379;51.554;6.736;2022-07-18T08:55:50;101821.00;;;36.40
37536;BMP180;23379;51.554;6.736;2022-07-18T08:58:16;101821.00;;;37.10
37536;BMP180;23379;51.554;6.736;2022-07-18T09:00:46;101821.00;;;36.40
37536;BMP180;23379;51.554;6.736;2022-07-18T09:03:12;101816.00;;;36.40
37536;BMP180;23379;51.554;6.736;2022-07-18T09:05:38;101834.00;;;36.70
37536;BMP180;23379;51.554;6.736;2022-07-18T09:08:12;101825.00;;;35.90
37536;BMP180;23379;51.554;6.736;2022-07-18T09:10:56;101828.00;;;36.70
37536;BMP180;23379;51.554;6.736;2022-07-18T09:13:25;101823.00;;;37.10
37536;BMP180;23379;51.554;6.736;2022-07-18T09:18:45;101826.00;;;36.70
37536;BMP180;23379;51.554;6.736;2022-07-18T09:23:42;101834.00;;;37.50
37536;BMP180;23379;51.554;6.736;2022-07-18T09:26:09;101826.00;;;37.90
37536;BMP180;23379;51.554;6.736;2022-07-18T09:28:46;101820.00;;;36.80
37536;BMP180;23379;51.554;6.736;2022-07-18T09:31:20;101821.00;;;36.30
37536;BMP180;23379;51.554;6.736;2022-07-18T09:33:56;101815.00;;;36.30
37536;BMP180;23379;51.554;6.736;2022-07-18T09:36:22;101818.00;;;37.60
37536;BMP180;23379;51.554;6.736;2022-07-18T09:38:47;101821.00;;;37.90
37536;BMP180;23379;51.554;6.736;2022-07-18T09:41:13;101812.00;;;36.50
37536;BMP180;23379;51.554;6.736;2022-07-18T09:43:39;101815.00;;;37.30
37536;BMP180;23379;51.554;6.736;2022-07-18T09:46:05;101820.00;;;37.70
37536;BMP180;23379;51.554;6.736;2022-07-18T09:48:31;101818.00;;;37.40
37536;BMP180;23379;51.554;6.736;2022-07-18T09:51:02;101817.00;;;35.50
37536;BMP180;23379;51.554;6.736;2022-07-18T09:53:32;101817.00;;;35.50
37536;BMP180;23379;51.554;6.736;2022-07-18T09:56:00;101824.00;;;35.80
37536;BMP180;23379;51.554;6.736;2022-07-18T09:58:28;101809.00;;;35.00
37536;BMP180;23379;51.554;6.736;2022-07-18T10:00:54;101821.00;;;35.90
37536;BMP180;23379;51.554;6.736;2022-07-18T10:03:21;101816.00;;;36.30
37536;BMP180;23379;51.554;6.736;2022-07-18T10:05:48;101831.00;;;37.30
37536;BMP180;23379;51.554;6.736;2022-07-18T10:08:16;101823.00;;;36.90
37536;BMP180;23379;51.554;6.736;2022-07-18T10:10:43;101826.00;;;37.70
37536;BMP180;23379;51.554;6.736;2022-07-18T10:13:09;101823.00;;;36.90
37536;BMP180;23379;51.554;6.736;2022-07-18T10:15:39;101816.00;;;36.50
37536;BMP180;23379;51.554;6.736;2022-07-18T10:18:07;101823.00;;;36.40
37536;BMP180;23379;51.554;6.736;2022-07-18T10:20:42;101822.00;;;36.30
37536;BMP180;23379;51.554;6.736;2022-07-18T10:23:34;101826.00;;;37.10
37536;BMP180;23379;51.554;6.736;2022-07-18T10:26:24;101821.00;;;38.00
37536;BMP180;23379;51.554;6.736;2022-07-18T10:31:36;101831.00;;;38.60
37536;BMP180;23379;51.554;6.736;2022-07-18T10:36:32;101819.00;;;37.30
37536;BMP180;23379;51.554;6.736;2022-07-18T10:39:14;101824.00;;;37.70
37536;BMP180;23379;51.554;6.736;2022-07-18T10:49:59;101819.00;;;39.50
37536;BMP180;23379;51.554;6.736;2022-07-18T10:57:29;101812.00;;;39.90
37536;BMP180;23379;51.554;6.736;2022-07-18T10:59:59;101817.00;;;39.10
37536;BMP180;23379;51.554;6.736;2022-07-18T11:02:47;101810.00;;;39.50
37536;BMP180;23379;51.554;6.736;2022-07-18T11:18:25;101801.00;;;40.40
37536;BMP180;23379;51.554;6.736;2022-07-18T11:20:51;101803.00;;;39.70
37536;BMP180;23379;51.554;6.736;2022-07-18T11:23:21;101800.00;;;39.50
37536;BMP180;23379;51.554;6.736;2022-07-18T11:25:54;101791.00;;;38.40
37536;BMP180;23379;51.554;6.736;2022-07-18T11:28:24;101788.00;;;37.10
37536;BMP180;23379;51.554;6.736;2022-07-18T11:31:05;101787.00;;;36.60
37536;BMP180;23379;51.554;6.736;2022-07-18T11:33:33;101795.00;;;37.60
37536;BMP180;23379;51.554;6.736;2022-07-18T11:36:11;101792.00;;;38.30
37536;BMP180;23379;51.554;6.736;2022-07-18T11:38:46;101780.00;;;38.90
37536;BMP180;23379;51.554;6.736;2022-07-18T11:41:11;101791.00;;;39.80
37536;BMP180;23379;51.554;6.736;2022-07-18T11:43:37;101780.00;;;40.00
37536;BMP180;23379;51.554;6.736;2022-07-18T11:46:07;101785.00;;;41.50
37536;BMP180;23379;51.554;6.736;2022-07-18T11:48:35;101778.00;;;41.20
37536;BMP180;23379;51.554;6.736;2022-07-18T11:51:01;101782.00;;;42.30
37536;BMP180;23379;51.554;6.736;2022-07-18T11:53:27;101769.00;;;42.80
37536;BMP180;23379;51.554;6.736;2022-07-18T11:55:54;101779.00;;;41.20
37536;BMP180;23379;51.554;6.736;2022-07-18T11:58:20;101765.00;;;40.40
37536;BMP180;23379;51.554;6.736;2022-07-18T12:00:46;101767.00;;;40.10
37536;BMP180;23379;51.554;6.736;2022-07-18T12:08:36;101764.00;;;40.30
37536;BMP180;23379;51.554;6.736;2022-07-18T12:11:16;101758.00;;;41.10
37536;BMP180;23379;51.554;6.736;2022-07-18T12:16:34;101757.00;;;40.30
37536;BMP180;23379;51.554;6.736;2022-07-18T12:19:20;101760.00;;;40.80
37536;BMP180;23379;51.554;6.736;2022-07-18T12:29:31;101742.00;;;42.20
37536;BMP180;23379;51.554;6.736;2022-07-18T12:31:58;101747.00;;;43.70
37536;BMP180;23379;51.554;6.736;2022-07-18T12:34:23;101741.00;;;43.70
37536;BMP180;23379;51.554;6.736;2022-07-18T12:36:56;101744.00;;;44.00
37536;BMP180;23379;51.554;6.736;2022-07-18T12:39:31;101748.00;;;43.70
37536;BMP180;23379;51.554;6.736;2022-07-18T12:41:58;101744.00;;;41.80
37536;BMP180;23379;51.554;6.736;2022-07-18T12:44:28;101737.00;;;43.80
37536;BMP180;23379;51.554;6.736;2022-07-18T12:46:54;101741.00;;;43.40
37536;BMP180;23379;51.554;6.736;2022-07-18T12:49:20;101726.00;;;41.80
37536;BMP180;23379;51.554;6.736;2022-07-18T12:51:46;101733.00;;;41.60
37536;BMP180;23379;51.554;6.736;2022-07-18T12:54:11;101716.00;;;39.20
37536;BMP180;23379;51.554;6.736;2022-07-18T12:56:37;101728.00;;;40.80
37536;BMP180;23379;51.554;6.736;2022-07-18T12:59:03;101713.00;;;38.40
37536;BMP180;23379;51.554;6.736;2022-07-18T13:01:28;101721.00;;;39.60
37536;BMP180;23379;51.554;6.736;2022-07-18T13:03:54;101725.00;;;41.20
37536;BMP180;23379;51.554;6.736;2022-07-18T13:06:19;101712.00;;;41.50
37536;BMP180;23379;51.554;6.736;2022-07-18T13:08:45;101720.00;;;41.00
37536;BMP180;23379;51.554;6.736;2022-07-18T13:11:10;101713.00;;;42.60
37536;BMP180;23379;51.554;6.736;2022-07-18T13:13:36;101719.00;;;43.20
37536;BMP180;23379;51.554;6.736;2022-07-18T13:16:01;101711.00;;;42.20
37536;BMP180;23379;51.554;6.736;2022-07-18T13:18:27;101710.00;;;42.70
37536;BMP180;23379;51.554;6.736;2022-07-18T13:20:52;101707.00;;;43.70
37536;BMP180;23379;51.554;6.736;2022-07-18T13:23:17;101709.00;;;42.30
37536;BMP180;23379;51.554;6.736;2022-07-18T13:25:44;101706.00;;;42.10
37536;BMP180;23379;51.554;6.736;2022-07-18T13:28:09;101706.00;;;42.50
37536;BMP180;23379;51.554;6.736;2022-07-18T13:30:35;101702.00;;;42.20
37536;BMP180;23379;51.554;6.736;2022-07-18T13:33:00;101703.00;;;42.50
37536;BMP180;23379;51.554;6.736;2022-07-18T13:35:26;101693.00;;;42.80
37536;BMP180;23379;51.554;6.736;2022-07-18T13:37:52;101698.00;;;42.30
37536;BMP180;23379;51.554;6.736;2022-07-18T13:40:17;101690.00;;;42.40
37536;BMP180;23379;51.554;6.736;2022-07-18T13:42:43;101694.00;;;42.90
37536;BMP180;23379;51.554;6.736;2022-07-18T13:45:09;101691.00;;;43.50
37536;BMP180;23379;51.554;6.736;2022-07-18T13:47:35;101687.00;;;42.30
37536;BMP180;23379;51.554;6.736;2022-07-18T13:50:00;101687.00;;;44.00
37536;BMP180;23379;51.554;6.736;2022-07-18T13:52:26;101686.00;;;43.00
37536;BMP180;23379;51.554;6.736;2022-07-18T13:54:51;101694.00;;;41.70
37536;BMP180;23379;51.554;6.736;2022-07-18T13:57:20;101684.00;;;41.00
37536;BMP180;23379;51.554;6.736;2022-07-18T13:59:45;101668.00;;;38.70
37536;BMP180;23379;51.554;6.736;2022-07-18T14:02:11;101680.00;;;37.80
37536;BMP180;23379;51.554;6.736;2022-07-18T14:04:36;101671.00;;;36.30
37536;BMP180;23379;51.554;6.736;2022-07-18T14:07:02;101671.00;;;36.20
37536;BMP180;23379;51.554;6.736;2022-07-18T14:09:27;101678.00;;;36.50
37536;BMP180;23379;51.554;6.736;2022-07-18T14:11:53;101664.00;;;37.00
37536;BMP180;23379;51.554;6.736;2022-07-18T14:14:18;101662.00;;;36.60
37536;BMP180;23379;51.554;6.736;2022-07-18T14:16:44;101663.00;;;36.40
37536;BMP180;23379;51.554;6.736;2022-07-18T14:19:09;101658.00;;;36.40
37536;BMP180;23379;51.554;6.736;2022-07-18T14:21:34;101668.00;;;35.90
37536;BMP180;23379;51.554;6.736;2022-07-18T14:24:00;101657.00;;;36.20
37536;BMP180;23379;51.554;6.736;2022-07-18T14:26:25;101650.00;;;36.00
37536;BMP180;23379;51.554;6.736;2022-07-18T14:28:51;101651.00;;;36.10
37536;BMP180;23379;51.554;6.736;2022-07-18T14:31:17;101643.00;;;36.10
37536;BMP180;23379;51.554;6.736;2022-07-18T14:33:42;101647.00;;;36.40
37536;BMP180;23379;51.554;6.736;2022-07-18T14:36:08;101649.00;;;36.00
37536;BMP180;23379;51.554;6.736;2022-07-18T14:38:33;101644.00;;;36.00
37536;BMP180;23379;51.554;6.736;2022-07-18T14:40:59;101639.00;;;35.90
37536;BMP180;23379;51.554;6.736;2022-07-18T14:43:24;101638.00;;;35.60
37536;BMP180;23379;51.554;6.736;2022-07-18T14:45:49;101640.00;;;35.60